sensor_id;sensor_type;location;lat;lon;timestamp;temperature;humidity
25991;DHT22;13779;-33.886;151.198;2023-07-30T00:01:48;17.50;99.90
25991;DHT22;13779;-33.886;151.198;2023-07-30T00:04:18;17.60;99.90
25991;DHT22;13779;-33.886;151.198;2023-07-30T00:06:48;17.70;99.90
25991;DHT22;13779;-33.886;151.198;2023-07-30T00:09:19;17.80;99.90
25991;DHT22;13779;-33.886;151.198;2023-07-30T00:11:49;17.90;99.90
25991;DHT22;13779;-33.886;151.198;2023-07-30T00:14:19;17.90;99.90
25991;DHT22;13779;-33.886;151.198;2023-07-30T00:16:49;18.00;99.90
25991;DHT22;13779;-33.886;151.198;2023-07-30T00:19:19;18.10;99.90
25991;DHT22;13779;-33.886;151.198;2023-07-30T00:21:49;18.20;99.90
25991;DHT22;13779;-33.886;151.198;2023-07-30T00:24:19;18.30;99.90
25991;DHT22;13779;-33.886;151.198;2023-07-30T00:26:49;18.50;99.90
25991;DHT22;13779;-33.886;151.198;2023-07-30T00:29:19;18.50;99.90
25991;DHT22;13779;-33.886;151.198;2023-07-30T00:31:50;18.60;99.90
25991;DHT22;13779;-33.886;151.198;2023-07-30T00:34:20;18.70;99.90
25991;DHT22;13779;-33.886;151.198;2023-07-30T00:36:50;18.80;99.90
25991;DHT22;13779;-33.886;151.198;2023-07-30T00:39:21;18.90;99.90
25991;DHT22;13779;-33.886;151.198;2023-07-30T00:41:51;19.10;99.90
25991;DHT22;13779;-33.886;151.198;2023-07-30T00:44:21;19.30;99.90
25991;DHT22;13779;-33.886;151.198;2023-07-30T00:46:51;19.30;99.90
25991;DHT22;13779;-33.886;151.198;2023-07-30T00:49:22;19.40;99.90
25991;DHT22;13779;-33.886;151.198;2023-07-30T00:51:52;19.50;99.90
25991;DHT22;13779;-33.886;151.198;2023-07-30T00:54:25;19.60;99.90
25991;DHT22;13779;-33.886;151.198;2023-07-30T00:56:56;19.70;99.90
25991;DHT22;13779;-33.886;151.198;2023-07-30T00:59:26;19.80;99.90
25991;DHT22;13779;-33.886;151.198;2023-07-30T01:01:57;20.00;99.90
25991;DHT22;13779;-33.886;151.198;2023-07-30T01:04:28;20.00;99.90
25991;DHT22;13779;-33.886;151.198;2023-07-30T01:06:59;20.00;99.90
25991;DHT22;13779;-33.886;151.198;2023-07-30T01:09:30;20.10;99.90
25991;DHT22;13779;-33.886;151.198;2023-07-30T01:12:02;20.20;99.90
25991;DHT22;13779;-33.886;151.198;2023-07-30T01:14:33;20.30;99.90
25991;DHT22;13779;-33.886;151.198;2023-07-30T01:17:04;20.30;99.90
25991;DHT22;13779;-33.886;151.198;2023-07-30T01:19:34;20.40;99.90
25991;DHT22;13779;-33.886;151.198;2023-07-30T01:22:04;20.60;99.90
25991;DHT22;13779;-33.886;151.198;2023-07-30T01:24:35;20.70;99.90
25991;DHT22;13779;-33.886;151.198;2023-07-30T01:27:08;20.80;99.90
25991;DHT22;13779;-33.886;151.198;2023-07-30T01:29:51;20.80;99.90
25991;DHT22;13779;-33.886;151.198;2023-07-30T01:32:26;20.90;99.90
25991;DHT22;13779;-33.886;151.198;2023-07-30T01:34:58;21.00;99.90
25991;DHT22;13779;-33.886;151.198;2023-07-30T01:37:30;21.00;99.90
25991;DHT22;13779;-33.886;151.198;2023-07-30T01:40:00;21.10;99.90
25991;DHT22;13779;-33.886;151.198;2023-07-30T01:42:31;21.30;99.90
25991;DHT22;13779;-33.886;151.198;2023-07-30T01:45:01;21.30;99.90
25991;DHT22;13779;-33.886;151.198;2023-07-30T01:47:32;21.30;99.90
25991;DHT22;13779;-33.886;151.198;2023-07-30T01:50:03;21.40;99.90
25991;DHT22;13779;-33.886;151.198;2023-07-30T01:52:34;21.50;99.90
25991;DHT22;13779;-33.886;151.198;2023-07-30T01:55:05;21.50;99.90
25991;DHT22;13779;-33.886;151.198;2023-07-30T01:57:35;21.60;99.90
25991;DHT22;13779;-33.886;151.198;2023-07-30T02:00:06;21.70;99.90
25991;DHT22;13779;-33.886;151.198;2023-07-30T02:02:37;21.70;99.90
25991;DHT22;13779;-33.886;151.198;2023-07-30T02:05:09;21.60;99.90
25991;DHT22;13779;-33.886;151.198;2023-07-30T02:07:39;21.70;99.90
25991;DHT22;13779;-33.886;151.198;2023-07-30T02:10:10;21.70;99.90
25991;DHT22;13779;-33.886;151.198;2023-07-30T02:12:40;21.90;99.90
25991;DHT22;13779;-33.886;151.198;2023-07-30T02:15:11;21.80;99.90
25991;DHT22;13779;-33.886;151.198;2023-07-30T02:17:41;21.90;99.90
25991;DHT22;13779;-33.886;151.198;2023-07-30T02:20:12;21.90;99.90
25991;DHT22;13779;-33.886;151.198;2023-07-30T02:22:43;22.10;99.90
25991;DHT22;13779;-33.886;151.198;2023-07-30T02:25:14;22.10;99.90
25991;DHT22;13779;-33.886;151.198;2023-07-30T02:27:44;22.10;99.90
25991;DHT22;13779;-33.886;151.198;2023-07-30T02:30:15;22.20;99.90
25991;DHT22;13779;-33.886;151.198;2023-07-30T02:32:46;22.20;99.90
25991;DHT22;13779;-33.886;151.198;2023-07-30T02:35:16;22.20;99.90
25991;DHT22;13779;-33.886;151.198;2023-07-30T02:37:47;22.20;99.90
25991;DHT22;13779;-33.886;151.198;2023-07-30T02:40:18;22.20;99.90
25991;DHT22;13779;-33.886;151.198;2023-07-30T02:42:49;22.30;99.90
25991;DHT22;13779;-33.886;151.198;2023-07-30T02:45:20;22.40;99.90
25991;DHT22;13779;-33.886;151.198;2023-07-30T02:47:50;22.50;99.90
25991;DHT22;13779;-33.886;151.198;2023-07-30T02:50:21;22.50;99.90
25991;DHT22;13779;-33.886;151.198;2023-07-30T02:52:52;22.60;99.90
25991;DHT22;13779;-33.886;151.198;2023-07-30T02:55:22;22.60;99.90
25991;DHT22;13779;-33.886;151.198;2023-07-30T02:57:53;22.70;99.90
25991;DHT22;13779;-33.886;151.198;2023-07-30T03:00:23;22.80;99.90
25991;DHT22;13779;-33.886;151.198;2023-07-30T03:02:54;22.80;99.90
25991;DHT22;13779;-33.886;151.198;2023-07-30T03:05:26;22.90;99.90
25991;DHT22;13779;-33.886;151.198;2023-07-30T03:07:56;23.10;99.90
25991;DHT22;13779;-33.886;151.198;2023-07-30T03:10:27;23.10;99.90
25991;DHT22;13779;-33.886;151.198;2023-07-30T03:12:58;23.20;99.90
25991;DHT22;13779;-33.886;151.198;2023-07-30T03:15:28;23.40;99.90
25991;DHT22;13779;-33.886;151.198;2023-07-30T03:17:59;23.60;99.90
25991;DHT22;13779;-33.886;151.198;2023-07-30T03:20:29;23.80;99.90
25991;DHT22;13779;-33.886;151.198;2023-07-30T03:23:00;23.90;99.90
25991;DHT22;13779;-33.886;151.198;2023-07-30T03:25:31;24.20;99.90
25991;DHT22;13779;-33.886;151.198;2023-07-30T03:28:01;24.30;99.90
25991;DHT22;13779;-33.886;151.198;2023-07-30T03:30:32;24.40;99.90
25991;DHT22;13779;-33.886;151.198;2023-07-30T03:33:03;24.60;99.90
25991;DHT22;13779;-33.886;151.198;2023-07-30T03:35:33;24.70;99.90
25991;DHT22;13779;-33.886;151.198;2023-07-30T03:38:04;24.60;99.90
25991;DHT22;13779;-33.886;151.198;2023-07-30T03:40:34;24.80;99.90
25991;DHT22;13779;-33.886;151.198;2023-07-30T03:43:05;25.10;99.90
25991;DHT22;13779;-33.886;151.198;2023-07-30T03:45:37;25.30;99.90
25991;DHT22;13779;-33.886;151.198;2023-07-30T03:48:07;25.50;99.90
25991;DHT22;13779;-33.886;151.198;2023-07-30T03:50:38;25.60;99.90
25991;DHT22;13779;-33.886;151.198;2023-07-30T03:53:09;25.80;99.90
25991;DHT22;13779;-33.886;151.198;2023-07-30T03:55:41;25.80;99.90
25991;DHT22;13779;-33.886;151.198;2023-07-30T03:58:12;25.80;99.90
25991;DHT22;13779;-33.886;151.198;2023-07-30T04:00:43;25.50;99.90
25991;DHT22;13779;-33.886;151.198;2023-07-30T04:03:16;25.40;99.90
25991;DHT22;13779;-33.886;151.198;2023-07-30T04:05:47;25.30;99.90
25991;DHT22;13779;-33.886;151.198;2023-07-30T04:08:18;25.10;99.90
25991;DHT22;13779;-33.886;151.198;2023-07-30T04:10:48;25.10;99.90
25991;DHT22;13779;-33.886;151.198;2023-07-30T04:13:19;25.20;99.90
25991;DHT22;13779;-33.886;151.198;2023-07-30T04:15:49;25.30;99.90
25991;DHT22;13779;-33.886;151.198;2023-07-30T04:18:20;25.50;99.90
25991;DHT22;13779;-33.886;151.198;2023-07-30T04:20:55;25.70;99.90
25991;DHT22;13779;-33.886;151.198;2023-07-30T04:23:26;25.70;99.90
25991;DHT22;13779;-33.886;151.198;2023-07-30T04:25:56;25.50;99.90
25991;DHT22;13779;-33.886;151.198;2023-07-30T04:28:27;25.50;99.90
25991;DHT22;13779;-33.886;151.198;2023-07-30T04:30:58;25.40;99.90
25991;DHT22;13779;-33.886;151.198;2023-07-30T04:33:28;25.50;99.90
25991;DHT22;13779;-33.886;151.198;2023-07-30T04:35:59;25.70;99.90
25991;DHT22;13779;-33.886;151.198;2023-07-30T04:38:30;25.80;99.90
25991;DHT22;13779;-33.886;151.198;2023-07-30T04:41:01;25.90;99.90
25991;DHT22;13779;-33.886;151.198;2023-07-30T04:43:31;26.00;99.90
25991;DHT22;13779;-33.886;151.198;2023-07-30T04:46:02;25.80;99.90
25991;DHT22;13779;-33.886;151.198;2023-07-30T04:48:33;25.70;99.80
25991;DHT22;13779;-33.886;151.198;2023-07-30T04:51:04;25.60;99.90
25991;DHT22;13779;-33.886;151.198;2023-07-30T04:53:34;25.50;99.90
25991;DHT22;13779;-33.886;151.198;2023-07-30T04:56:05;25.50;99.90
25991;DHT22;13779;-33.886;151.198;2023-07-30T04:58:36;25.40;99.90
25991;DHT22;13779;-33.886;151.198;2023-07-30T05:01:07;25.30;99.90
25991;DHT22;13779;-33.886;151.198;2023-07-30T05:03:37;25.30;99.90
25991;DHT22;13779;-33.886;151.198;2023-07-30T05:06:08;25.30;99.90
25991;DHT22;13779;-33.886;151.198;2023-07-30T05:08:38;25.20;99.90
25991;DHT22;13779;-33.886;151.198;2023-07-30T05:11:09;25.00;99.90
25991;DHT22;13779;-33.886;151.198;2023-07-30T05:13:39;24.90;99.90
25991;DHT22;13779;-33.886;151.198;2023-07-30T05:16:10;24.80;99.90
25991;DHT22;13779;-33.886;151.198;2023-07-30T05:18:41;24.90;99.90
25991;DHT22;13779;-33.886;151.198;2023-07-30T05:21:13;24.80;99.90
25991;DHT22;13779;-33.886;151.198;2023-07-30T05:23:43;24.90;99.90
25991;DHT22;13779;-33.886;151.198;2023-07-30T05:26:13;24.80;99.90
25991;DHT22;13779;-33.886;151.198;2023-07-30T05:28:44;24.60;99.90
25991;DHT22;13779;-33.886;151.198;2023-07-30T05:31:15;24.30;99.90
25991;DHT22;13779;-33.886;151.198;2023-07-30T05:33:45;24.20;99.90
25991;DHT22;13779;-33.886;151.198;2023-07-30T05:36:16;24.10;99.90
25991;DHT22;13779;-33.886;151.198;2023-07-30T05:38:47;24.10;99.90
25991;DHT22;13779;-33.886;151.198;2023-07-30T05:41:17;24.00;99.90
25991;DHT22;13779;-33.886;151.198;2023-07-30T05:43:48;24.00;99.90
25991;DHT22;13779;-33.886;151.198;2023-07-30T05:46:18;23.80;99.90
25991;DHT22;13779;-33.886;151.198;2023-07-30T05:48:49;23.80;99.90
25991;DHT22;13779;-33.886;151.198;2023-07-30T05:51:20;23.70;99.90
25991;DHT22;13779;-33.886;151.198;2023-07-30T05:53:50;23.70;99.90
25991;DHT22;13779;-33.886;151.198;2023-07-30T05:56:21;23.80;99.90
25991;DHT22;13779;-33.886;151.198;2023-07-30T05:58:51;23.80;99.90
25991;DHT22;13779;-33.886;151.198;2023-07-30T06:01:23;23.70;99.30
25991;DHT22;13779;-33.886;151.198;2023-07-30T06:03:54;23.70;99.20
25991;DHT22;13779;-33.886;151.198;2023-07-30T06:06:24;23.60;99.20
25991;DHT22;13779;-33.886;151.198;2023-07-30T06:08:58;23.50;99.10
25991;DHT22;13779;-33.886;151.198;2023-07-30T06:11:28;23.50;98.40
25991;DHT22;13779;-33.886;151.198;2023-07-30T06:13:59;23.50;98.30
25991;DHT22;13779;-33.886;151.198;2023-07-30T06:16:30;23.50;97.90
25991;DHT22;13779;-33.886;151.198;2023-07-30T06:19:00;23.50;98.00
25991;DHT22;13779;-33.886;151.198;2023-07-30T06:21:31;23.40;98.00
25991;DHT22;13779;-33.886;151.198;2023-07-30T06:24:02;23.40;98.10
25991;DHT22;13779;-33.886;151.198;2023-07-30T06:26:32;23.30;98.10
25991;DHT22;13779;-33.886;151.198;2023-07-30T06:29:03;23.30;98.10
25991;DHT22;13779;-33.886;151.198;2023-07-30T06:31:33;23.20;97.30
25991;DHT22;13779;-33.886;151.198;2023-07-30T06:34:04;23.20;97.10
25991;DHT22;13779;-33.886;151.198;2023-07-30T06:36:36;23.10;97.00
25991;DHT22;13779;-33.886;151.198;2023-07-30T06:39:06;23.10;97.10
25991;DHT22;13779;-33.886;151.198;2023-07-30T06:41:37;23.00;97.10
25991;DHT22;13779;-33.886;151.198;2023-07-30T06:44:08;23.00;97.70
25991;DHT22;13779;-33.886;151.198;2023-07-30T06:46:40;22.90;97.70
25991;DHT22;13779;-33.886;151.198;2023-07-30T06:49:10;22.80;97.90
25991;DHT22;13779;-33.886;151.198;2023-07-30T06:51:40;22.70;98.30
25991;DHT22;13779;-33.886;151.198;2023-07-30T06:54:10;22.60;98.30
25991;DHT22;13779;-33.886;151.198;2023-07-30T06:56:40;22.60;98.30
25991;DHT22;13779;-33.886;151.198;2023-07-30T06:59:10;22.50;98.30
25991;DHT22;13779;-33.886;151.198;2023-07-30T07:01:40;22.50;98.00
25991;DHT22;13779;-33.886;151.198;2023-07-30T07:04:11;22.40;98.90
25991;DHT22;13779;-33.886;151.198;2023-07-30T07:06:41;22.20;99.60
25991;DHT22;13779;-33.886;151.198;2023-07-30T07:09:12;22.10;99.90
25991;DHT22;13779;-33.886;151.198;2023-07-30T07:11:42;22.10;99.90
25991;DHT22;13779;-33.886;151.198;2023-07-30T07:14:12;22.00;99.90
25991;DHT22;13779;-33.886;151.198;2023-07-30T07:16:42;21.90;99.90
25991;DHT22;13779;-33.886;151.198;2023-07-30T07:19:13;21.80;99.90
25991;DHT22;13779;-33.886;151.198;2023-07-30T07:21:43;21.70;99.90
25991;DHT22;13779;-33.886;151.198;2023-07-30T07:24:13;21.60;99.90
25991;DHT22;13779;-33.886;151.198;2023-07-30T07:26:44;21.50;99.90
25991;DHT22;13779;-33.886;151.198;2023-07-30T07:29:14;21.40;99.90
25991;DHT22;13779;-33.886;151.198;2023-07-30T07:31:46;21.30;99.90
25991;DHT22;13779;-33.886;151.198;2023-07-30T07:34:15;21.30;99.90
25991;DHT22;13779;-33.886;151.198;2023-07-30T07:36:45;21.20;99.90
25991;DHT22;13779;-33.886;151.198;2023-07-30T07:39:15;21.20;99.90
25991;DHT22;13779;-33.886;151.198;2023-07-30T07:41:46;21.10;99.90
25991;DHT22;13779;-33.886;151.198;2023-07-30T07:44:16;21.10;99.90
25991;DHT22;13779;-33.886;151.198;2023-07-30T07:46:46;21.00;99.90
25991;DHT22;13779;-33.886;151.198;2023-07-30T07:49:17;21.00;99.90
25991;DHT22;13779;-33.886;151.198;2023-07-30T07:51:47;20.90;99.90
25991;DHT22;13779;-33.886;151.198;2023-07-30T07:54:17;20.90;99.90
25991;DHT22;13779;-33.886;151.198;2023-07-30T07:56:47;20.80;99.90
25991;DHT22;13779;-33.886;151.198;2023-07-30T07:59:18;20.80;99.90
25991;DHT22;13779;-33.886;151.198;2023-07-30T08:01:48;20.80;99.90
25991;DHT22;13779;-33.886;151.198;2023-07-30T08:04:18;20.70;99.90
25991;DHT22;13779;-33.886;151.198;2023-07-30T08:06:50;20.70;99.90
25991;DHT22;13779;-33.886;151.198;2023-07-30T08:09:21;20.70;99.90
25991;DHT22;13779;-33.886;151.198;2023-07-30T08:11:51;20.60;99.90
25991;DHT22;13779;-33.886;151.198;2023-07-30T08:14:21;20.60;99.90
25991;DHT22;13779;-33.886;151.198;2023-07-30T08:16:51;20.50;99.90
25991;DHT22;13779;-33.886;151.198;2023-07-30T08:19:22;20.50;99.90
25991;DHT22;13779;-33.886;151.198;2023-07-30T08:21:52;20.40;99.90
25991;DHT22;13779;-33.886;151.198;2023-07-30T08:24:22;20.40;99.90
25991;DHT22;13779;-33.886;151.198;2023-07-30T08:26:52;20.30;99.90
25991;DHT22;13779;-33.886;151.198;2023-07-30T08:29:27;20.20;99.90
25991;DHT22;13779;-33.886;151.198;2023-07-30T08:31:57;20.10;99.90
25991;DHT22;13779;-33.886;151.198;2023-07-30T08:34:27;20.00;99.90
25991;DHT22;13779;-33.886;151.198;2023-07-30T08:36:58;20.00;99.90
25991;DHT22;13779;-33.886;151.198;2023-07-30T08:42:09;19.90;99.90
25991;DHT22;13779;-33.886;151.198;2023-07-30T08:44:43;19.80;99.90
25991;DHT22;13779;-33.886;151.198;2023-07-30T08:47:15;19.70;99.90
25991;DHT22;13779;-33.886;151.198;2023-07-30T08:49:46;19.60;99.90
25991;DHT22;13779;-33.886;151.198;2023-07-30T08:52:21;19.50;99.90
25991;DHT22;13779;-33.886;151.198;2023-07-30T08:54:54;19.50;99.90
25991;DHT22;13779;-33.886;151.198;2023-07-30T08:57:31;19.40;99.90
25991;DHT22;13779;-33.886;151.198;2023-07-30T09:00:05;19.30;99.90
25991;DHT22;13779;-33.886;151.198;2023-07-30T09:02:44;19.30;99.90
25991;DHT22;13779;-33.886;151.198;2023-07-30T09:05:21;19.20;99.90
25991;DHT22;13779;-33.886;151.198;2023-07-30T09:07:54;19.10;99.90
25991;DHT22;13779;-33.886;151.198;2023-07-30T09:10:26;19.10;99.90
25991;DHT22;13779;-33.886;151.198;2023-07-30T09:12:58;19.00;99.90
25991;DHT22;13779;-33.886;151.198;2023-07-30T09:15:36;19.00;99.90
25991;DHT22;13779;-33.886;151.198;2023-07-30T09:18:13;19.00;99.90
25991;DHT22;13779;-33.886;151.198;2023-07-30T09:20:47;18.90;99.90
25991;DHT22;13779;-33.886;151.198;2023-07-30T09:23:18;19.00;99.90
25991;DHT22;13779;-33.886;151.198;2023-07-30T09:25:49;19.00;99.90
25991;DHT22;13779;-33.886;151.198;2023-07-30T09:28:31;19.00;99.90
25991;DHT22;13779;-33.886;151.198;2023-07-30T09:31:11;19.10;99.90
25991;DHT22;13779;-33.886;151.198;2023-07-30T09:33:52;19.10;99.90
25991;DHT22;13779;-33.886;151.198;2023-07-30T09:36:23;19.10;99.90
25991;DHT22;13779;-33.886;151.198;2023-07-30T09:38:53;19.20;99.90
25991;DHT22;13779;-33.886;151.198;2023-07-30T09:41:26;19.20;99.90
25991;DHT22;13779;-33.886;151.198;2023-07-30T09:43:59;19.20;99.90
25991;DHT22;13779;-33.886;151.198;2023-07-30T09:46:30;19.20;99.90
25991;DHT22;13779;-33.886;151.198;2023-07-30T09:49:06;19.20;99.90
25991;DHT22;13779;-33.886;151.198;2023-07-30T09:51:41;19.30;99.90
25991;DHT22;13779;-33.886;151.198;2023-07-30T09:54:13;19.30;99.90
25991;DHT22;13779;-33.886;151.198;2023-07-30T09:56:44;19.30;99.90
25991;DHT22;13779;-33.886;151.198;2023-07-30T09:59:16;19.30;99.90
25991;DHT22;13779;-33.886;151.198;2023-07-30T10:01:49;19.30;99.90
25991;DHT22;13779;-33.886;151.198;2023-07-30T10:04:21;19.40;99.90
25991;DHT22;13779;-33.886;151.198;2023-07-30T10:07:01;19.30;99.90
25991;DHT22;13779;-33.886;151.198;2023-07-30T10:09:40;19.30;99.90
25991;DHT22;13779;-33.886;151.198;2023-07-30T10:12:22;19.30;99.90
25991;DHT22;13779;-33.886;151.198;2023-07-30T10:14:54;19.40;99.90
25991;DHT22;13779;-33.886;151.198;2023-07-30T10:17:25;19.40;99.90
25991;DHT22;13779;-33.886;151.198;2023-07-30T10:20:22;19.40;99.90
25991;DHT22;13779;-33.886;151.198;2023-07-30T10:22:55;19.40;99.90
25991;DHT22;13779;-33.886;151.198;2023-07-30T10:25:52;19.40;99.90
25991;DHT22;13779;-33.886;151.198;2023-07-30T10:31:04;19.30;99.90
25991;DHT22;13779;-33.886;151.198;2023-07-30T10:33:54;19.30;99.90
25991;DHT22;13779;-33.886;151.198;2023-07-30T10:36:44;19.20;99.90
25991;DHT22;13779;-33.886;151.198;2023-07-30T10:41:52;19.10;99.90
25991;DHT22;13779;-33.886;151.198;2023-07-30T10:44:29;19.00;99.90
25991;DHT22;13779;-33.886;151.198;2023-07-30T10:47:04;19.00;99.90
25991;DHT22;13779;-33.886;151.198;2023-07-30T10:49:40;18.90;99.90
25991;DHT22;13779;-33.886;151.198;2023-07-30T10:52:13;18.90;99.90
25991;DHT22;13779;-33.886;151.198;2023-07-30T10:54:46;18.90;99.90
25991;DHT22;13779;-33.886;151.198;2023-07-30T10:57:17;18.80;99.90
25991;DHT22;13779;-33.886;151.198;2023-07-30T10:59:47;18.80;99.90
25991;DHT22;13779;-33.886;151.198;2023-07-30T11:02:18;18.70;99.90
25991;DHT22;13779;-33.886;151.198;2023-07-30T11:04:49;18.70;99.90
25991;DHT22;13779;-33.886;151.198;2023-07-30T11:07:20;18.60;99.90
25991;DHT22;13779;-33.886;151.198;2023-07-30T11:10:00;18.60;99.90
25991;DHT22;13779;-33.886;151.198;2023-07-30T11:12:32;18.60;99.90
25991;DHT22;13779;-33.886;151.198;2023-07-30T11:15:04;18.60;99.90
25991;DHT22;13779;-33.886;151.198;2023-07-30T11:17:35;18.50;99.90
25991;DHT22;13779;-33.886;151.198;2023-07-30T11:20:24;18.50;99.90
25991;DHT22;13779;-33.886;151.198;2023-07-30T11:22:58;18.50;99.90
25991;DHT22;13779;-33.886;151.198;2023-07-30T11:25:29;18.40;99.90
25991;DHT22;13779;-33.886;151.198;2023-07-30T11:28:00;18.40;99.90
25991;DHT22;13779;-33.886;151.198;2023-07-30T11:30:33;18.30;99.90
25991;DHT22;13779;-33.886;151.198;2023-07-30T11:33:07;18.30;99.90
25991;DHT22;13779;-33.886;151.198;2023-07-30T11:35:48;18.20;99.90
25991;DHT22;13779;-33.886;151.198;2023-07-30T11:38:24;18.10;99.90
25991;DHT22;13779;-33.886;151.198;2023-07-30T11:40:56;18.10;99.90
25991;DHT22;13779;-33.886;151.198;2023-07-30T11:43:31;18.10;99.90
25991;DHT22;13779;-33.886;151.198;2023-07-30T11:46:12;18.00;99.90
25991;DHT22;13779;-33.886;151.198;2023-07-30T11:48:46;18.00;99.90
25991;DHT22;13779;-33.886;151.198;2023-07-30T11:51:27;18.00;99.90
25991;DHT22;13779;-33.886;151.198;2023-07-30T11:53:59;18.00;99.90
25991;DHT22;13779;-33.886;151.198;2023-07-30T11:56:31;17.90;99.90
25991;DHT22;13779;-33.886;151.198;2023-07-30T11:59:08;17.90;99.90
25991;DHT22;13779;-33.886;151.198;2023-07-30T12:01:38;17.90;99.90
25991;DHT22;13779;-33.886;151.198;2023-07-30T12:04:09;17.80;99.90
25991;DHT22;13779;-33.886;151.198;2023-07-30T12:06:49;17.70;99.90
25991;DHT22;13779;-33.886;151.198;2023-07-30T12:09:22;17.70;99.90
25991;DHT22;13779;-33.886;151.198;2023-07-30T12:11:58;17.70;99.90
25991;DHT22;13779;-33.886;151.198;2023-07-30T12:17:12;17.50;99.90
25991;DHT22;13779;-33.886;151.198;2023-07-30T12:19:42;17.50;99.90
25991;DHT22;13779;-33.886;151.198;2023-07-30T12:22:13;17.40;99.90
25991;DHT22;13779;-33.886;151.198;2023-07-30T12:24:43;17.40;99.90
25991;DHT22;13779;-33.886;151.198;2023-07-30T12:27:13;17.40;99.90
25991;DHT22;13779;-33.886;151.198;2023-07-30T12:29:44;17.40;99.90
25991;DHT22;13779;-33.886;151.198;2023-07-30T12:32:14;17.30;99.90
25991;DHT22;13779;-33.886;151.198;2023-07-30T12:34:44;17.30;99.90
25991;DHT22;13779;-33.886;151.198;2023-07-30T12:37:14;17.30;99.90
25991;DHT22;13779;-33.886;151.198;2023-07-30T12:39:44;17.30;99.90
25991;DHT22;13779;-33.886;151.198;2023-07-30T12:42:15;17.20;99.90
25991;DHT22;13779;-33.886;151.198;2023-07-30T12:44:45;17.30;99.90
25991;DHT22;13779;-33.886;151.198;2023-07-30T12:47:15;17.30;99.90
25991;DHT22;13779;-33.886;151.198;2023-07-30T12:49:45;17.30;99.90
25991;DHT22;13779;-33.886;151.198;2023-07-30T12:52:15;17.20;99.90
25991;DHT22;13779;-33.886;151.198;2023-07-30T12:54:45;17.20;99.90
25991;DHT22;13779;-33.886;151.198;2023-07-30T12:57:16;17.10;99.90
25991;DHT22;13779;-33.886;151.198;2023-07-30T12:59:46;17.10;99.90
25991;DHT22;13779;-33.886;151.198;2023-07-30T13:02:16;17.00;99.90
25991;DHT22;13779;-33.886;151.198;2023-07-30T13:04:46;17.00;99.90
25991;DHT22;13779;-33.886;151.198;2023-07-30T13:07:16;17.00;99.90
25991;DHT22;13779;-33.886;151.198;2023-07-30T13:09:47;17.00;99.90
25991;DHT22;13779;-33.886;151.198;2023-07-30T13:12:17;17.00;99.90
25991;DHT22;13779;-33.886;151.198;2023-07-30T13:14:47;17.10;99.90
25991;DHT22;13779;-33.886;151.198;2023-07-30T13:17:17;17.00;99.90
25991;DHT22;13779;-33.886;151.198;2023-07-30T13:19:47;17.00;99.90
25991;DHT22;13779;-33.886;151.198;2023-07-30T13:22:17;17.00;99.90
25991;DHT22;13779;-33.886;151.198;2023-07-30T13:24:48;16.90;99.90
25991;DHT22;13779;-33.886;151.198;2023-07-30T13:27:18;16.80;99.90
25991;DHT22;13779;-33.886;151.198;2023-07-30T13:29:48;16.70;99.90
25991;DHT22;13779;-33.886;151.198;2023-07-30T13:32:19;16.60;99.90
25991;DHT22;13779;-33.886;151.198;2023-07-30T13:34:49;16.60;99.90
25991;DHT22;13779;-33.886;151.198;2023-07-30T13:37:19;16.50;99.90
25991;DHT22;13779;-33.886;151.198;2023-07-30T13:39:49;16.50;99.90
25991;DHT22;13779;-33.886;151.198;2023-07-30T13:42:21;16.50;99.90
25991;DHT22;13779;-33.886;151.198;2023-07-30T13:44:51;16.40;99.90
25991;DHT22;13779;-33.886;151.198;2023-07-30T13:47:22;16.50;99.90
25991;DHT22;13779;-33.886;151.198;2023-07-30T13:49:53;16.40;99.90
25991;DHT22;13779;-33.886;151.198;2023-07-30T13:52:24;16.50;99.90
25991;DHT22;13779;-33.886;151.198;2023-07-30T13:54:54;16.50;99.90
25991;DHT22;13779;-33.886;151.198;2023-07-30T13:57:24;16.50;99.90
25991;DHT22;13779;-33.886;151.198;2023-07-30T13:59:55;16.50;99.90
25991;DHT22;13779;-33.886;151.198;2023-07-30T14:02:25;16.40;99.90
25991;DHT22;13779;-33.886;151.198;2023-07-30T14:04:55;16.40;99.90
25991;DHT22;13779;-33.886;151.198;2023-07-30T14:07:26;16.40;99.90
25991;DHT22;13779;-33.886;151.198;2023-07-30T14:09:56;16.40;99.90
25991;DHT22;13779;-33.886;151.198;2023-07-30T14:12:26;16.40;99.90
25991;DHT22;13779;-33.886;151.198;2023-07-30T14:14:56;16.30;99.90
25991;DHT22;13779;-33.886;151.198;2023-07-30T14:17:26;16.40;99.90
25991;DHT22;13779;-33.886;151.198;2023-07-30T14:19:56;16.30;99.90
25991;DHT22;13779;-33.886;151.198;2023-07-30T14:22:26;16.30;99.90
25991;DHT22;13779;-33.886;151.198;2023-07-30T14:24:57;16.40;99.90
25991;DHT22;13779;-33.886;151.198;2023-07-30T14:27:28;16.30;99.90
25991;DHT22;13779;-33.886;151.198;2023-07-30T14:29:58;16.30;99.90
25991;DHT22;13779;-33.886;151.198;2023-07-30T14:32:28;16.20;99.90
25991;DHT22;13779;-33.886;151.198;2023-07-30T14:34:58;16.20;99.90
25991;DHT22;13779;-33.886;151.198;2023-07-30T14:37:29;16.20;99.90
25991;DHT22;13779;-33.886;151.198;2023-07-30T14:39:59;16.10;99.90
25991;DHT22;13779;-33.886;151.198;2023-07-30T14:42:29;16.00;99.90
25991;DHT22;13779;-33.886;151.198;2023-07-30T14:44:59;16.00;99.90
25991;DHT22;13779;-33.886;151.198;2023-07-30T14:47:30;15.90;99.90
25991;DHT22;13779;-33.886;151.198;2023-07-30T14:50:00;15.90;99.90
25991;DHT22;13779;-33.886;151.198;2023-07-30T14:52:31;15.90;99.90
25991;DHT22;13779;-33.886;151.198;2023-07-30T14:55:01;15.80;99.90
25991;DHT22;13779;-33.886;151.198;2023-07-30T14:57:33;15.80;99.90
25991;DHT22;13779;-33.886;151.198;2023-07-30T15:00:03;15.90;99.90
25991;DHT22;13779;-33.886;151.198;2023-07-30T15:02:34;15.90;99.90
25991;DHT22;13779;-33.886;151.198;2023-07-30T15:05:04;15.90;99.90
25991;DHT22;13779;-33.886;151.198;2023-07-30T15:07:35;15.90;99.90
25991;DHT22;13779;-33.886;151.198;2023-07-30T15:10:05;15.90;99.90
25991;DHT22;13779;-33.886;151.198;2023-07-30T15:12:35;15.90;99.90
25991;DHT22;13779;-33.886;151.198;2023-07-30T15:15:06;15.90;99.90
25991;DHT22;13779;-33.886;151.198;2023-07-30T15:17:37;15.90;99.90
25991;DHT22;13779;-33.886;151.198;2023-07-30T15:20:07;16.00;99.90
25991;DHT22;13779;-33.886;151.198;2023-07-30T15:22:38;16.00;99.90
25991;DHT22;13779;-33.886;151.198;2023-07-30T15:25:08;16.10;99.90